| time (UTC) | temp C | wind direction | speed KPH | gust KPH | rain 1hr cm | rain 24hr cm | rain mn cm | humidity % | barometer mb |
| 20260508050052 | -17 | 0.0 | 0.0 | 0.00 | 0.03 | 0.00 | 1005.1 | ||
| 20260508050042 | 4 | 14 | 4.8 | 17.7 | 0.00 | 0.00 | 0.00 | 33 | 1004.7 |
| 20260508044554 | 4 | 342 | 8.0 | 19.3 | 0.00 | 0.00 | 0.00 | 36 | 1004.9 |
| 20260508044546 | -17 | 0.0 | 0.0 | 0.00 | 0.03 | 0.00 | 1005.1 | ||
| 20260508043038 | 4 | 355 | 9.7 | 22.5 | 0.00 | 0.05 | 0.00 | 37 | 1005.0 |
| 20260508043032 | -17 | 0.0 | 0.0 | 0.00 | 0.03 | 0.00 | 1005.2 | ||
| 20260508041547 | 4 | 345 | 11.3 | 24.1 | 0.00 | 0.05 | 0.00 | 41 | 1005.0 |
| 20260508041522 | -17 | 0.0 | 0.0 | 0.00 | 0.03 | 0.00 | 1005.1 | ||
| 20260508040035 | 3 | 341 | 8.0 | 16.1 | 0.00 | 0.05 | 0.00 | 46 | 1005.1 |
| 20260508040018 | -17 | 0.0 | 0.0 | 0.00 | 0.03 | 0.03 | 1005.2 | ||
| 20260508034532 | 3 | 316 | 1.6 | 14.5 | 0.00 | 0.05 | 0.00 | 53 | 1005.1 |
| 20260508034513 | -17 | 0.0 | 0.0 | 0.00 | 0.03 | 0.03 | 1005.1 | ||
| 20260508033036 | 3 | 322 | 4.8 | 12.9 | 0.00 | 0.36 | 0.00 | 56 | 1005.1 |
| 20260508033013 | -17 | 0.0 | 0.0 | 0.00 | 0.03 | 0.03 | 1005.0 | ||
| 20260508031527 | 3 | 287 | 1.6 | 11.3 | 0.00 | 0.36 | 0.00 | 56 | 1005.0 |
| 20260508031505 | -17 | 0.0 | 0.0 | 0.00 | 0.03 | 0.03 | 1004.8 | ||
| 20260508030009 | 3 | 282 | 1.6 | 8.0 | 0.00 | 0.36 | 0.00 | 55 | 1004.8 |
| 20260508030000 | -17 | 0.0 | 0.0 | 0.00 | 0.03 | 0.03 | 1004.9 | ||
| 20260508024605 | -17 | 0.0 | 0.0 | 0.00 | 0.03 | 0.03 | 1004.7 | ||
| 20260508024510 | 3 | 256 | 0.0 | 3.2 | 0.00 | 0.36 | 0.00 | 57 | 1004.9 |
| 20260508023055 | 3 | 305 | 0.0 | 4.8 | 0.00 | 0.51 | 0.00 | 59 | 1004.8 |
| 20260508023053 | -17 | 0.0 | 0.0 | 0.00 | 0.03 | 0.03 | 1004.7 | ||
| 20260508021613 | 3 | 249 | 0.0 | 3.2 | 0.00 | 0.51 | 0.00 | 61 | 1004.7 |
| 20260508021534 | -17 | 0.0 | 0.0 | 0.00 | 0.03 | 0.03 | 1004.8 | ||
| 20260508020051 | 3 | 256 | 0.0 | 4.8 | 0.00 | 0.51 | 0.00 | 63 | 1004.8 |
| 20260508020028 | -17 | 0.0 | 0.0 | 0.00 | 0.03 | 0.03 | 1004.8 | ||
| 20260508014551 | 3 | 272 | 0.0 | 0.0 | 0.00 | 0.51 | 0.00 | 63 | 1004.7 |
| 20260508014531 | -17 | 0.0 | 0.0 | 0.00 | 0.03 | 0.03 | 1004.7 | ||
| 20260508013049 | 4 | 266 | 0.0 | 0.0 | 0.00 | 0.69 | 0.00 | 64 | 1004.8 |
| 20260508013019 | -17 | 0.0 | 0.0 | 0.00 | 0.03 | 0.03 | 1004.8 | ||
| 20260508011555 | 5 | 251 | 0.0 | 1.6 | 0.00 | 0.69 | 0.00 | 64 | 1004.8 |
| 20260508011517 | -17 | 0.0 | 0.0 | 0.00 | 0.03 | 0.03 | 1004.8 | ||
| 20260508010045 | 5 | 289 | 0.0 | 9.7 | 0.00 | 0.69 | 0.00 | 63 | 1004.7 |
| 20260508010010 | -17 | 0.0 | 0.0 | 0.00 | 0.03 | 0.03 | 1004.9 | ||
| 20260508004542 | 5 | 256 | 1.6 | 11.3 | 0.00 | 0.69 | 0.00 | 63 | 1004.8 |
| 20260508004505 | -17 | 0.0 | 0.0 | 0.00 | 0.03 | 0.03 | 1004.8 | ||
| 20260508003029 | 5 | 324 | 3.2 | 12.9 | 0.00 | 0.91 | 0.00 | 62 | 1004.6 |
| 20260508003002 | -17 | 0.0 | 0.0 | 0.00 | 0.03 | 0.03 | 1004.8 | ||
| 20260508001545 | -17 | 0.0 | 0.0 | 0.00 | 0.03 | 0.03 | 1004.8 | ||
| 20260508001534 | 6 | 329 | 3.2 | 12.9 | 0.00 | 0.91 | 0.00 | 62 | 1004.4 |
| 20260508000038 | -17 | 0.0 | 0.0 | 0.00 | 0.03 | 0.03 | 1004.7 | ||
| 20260508000028 | 6 | 328 | 8.0 | 22.5 | 0.00 | 0.91 | 0.00 | 61 | 1004.3 |
| 20260507234535 | -17 | 0.0 | 0.0 | 0.00 | 0.03 | 0.03 | 1004.6 | ||
| 20260507234531 | 6 | 299 | 12.9 | 20.9 | 0.00 | 0.91 | 0.00 | 59 | 1004.2 |
| 20260507233030 | 5 | 265 | 11.3 | 20.9 | 0.00 | 0.03 | 0.03 | 66 | 1004.6 |
| 20260507233021 | 6 | 302 | 6.4 | 25.7 | 0.00 | 1.07 | 0.00 | 59 | 1004.3 |
| 20260507231530 | 5 | 290 | 12.9 | 20.9 | 0.00 | 0.03 | 0.03 | 66 | 1004.7 |
| 20260507231518 | 7 | 312 | 11.3 | 30.6 | 0.00 | 1.07 | 0.00 | 57 | 1004.2 |
| 20260507230028 | 5 | 250 | 12.9 | 33.8 | 0.00 | 0.03 | 0.03 | 65 | 1004.6 |
| 20260507230017 | 7 | 296 | 11.3 | 24.1 | 0.00 | 1.07 | 0.00 | 59 | 1004.0 |
| 20260507224529 | 5 | 252 | 12.9 | 25.7 | 0.00 | 0.03 | 0.03 | 64 | 1004.6 |
| 20260507224519 | 7 | 293 | 11.3 | 25.7 | 0.00 | 1.07 | 0.00 | 59 | 1004.0 |
| 20260507223028 | 6 | 266 | 17.7 | 38.6 | 0.00 | 0.03 | 0.03 | 62 | 1004.4 |
| 20260507223005 | 7 | 179 | 12.9 | 30.6 | 0.00 | 1.27 | 0.00 | 57 | 1004.0 |
| 20260507221521 | 5 | 235 | 14.5 | 30.6 | 0.00 | 0.03 | 0.03 | 64 | 1004.4 |
| 20260507221503 | 7 | 271 | 9.7 | 24.1 | 0.00 | 1.27 | 0.00 | 55 | 1004.0 |
| 20260507220020 | 5 | 281 | 11.3 | 30.6 | 0.00 | 0.03 | 0.03 | 65 | 1004.3 |
| 20260507220002 | 8 | 299 | 9.7 | 29.0 | 0.00 | 1.27 | 0.00 | 53 | 1003.8 |
| 20260507214522 | 5 | 253 | 14.5 | 32.2 | 0.00 | 0.03 | 0.03 | 64 | 1004.2 |
| 20260507214502 | 8 | 323 | 11.3 | 37.0 | 0.00 | 1.27 | 0.00 | 53 | 1003.8 |
| 20260507213026 | 6 | 254 | 14.5 | 32.2 | 0.00 | 0.03 | 0.03 | 61 | 1004.1 |
| 20260507213003 | 8 | 328 | 9.7 | 27.4 | 0.00 | 1.42 | 0.00 | 55 | 1003.8 |
| 20260507211559 | 8 | 248 | 14.5 | 38.6 | 0.00 | 1.42 | 0.00 | 54 | 1003.9 |
| 20260507211519 | 6 | 295 | 12.9 | 25.7 | 0.00 | 0.03 | 0.03 | 63 | 1004.1 |
| 20260507210120 | 8 | 274 | 8.0 | 17.7 | 0.00 | 1.42 | 0.00 | 59 | 1003.8 |
| 20260507210018 | 6 | 257 | 14.5 | 27.4 | 0.00 | 0.03 | 0.03 | 65 | 1004.1 |
| 20260507204601 | 7 | 273 | 16.1 | 33.8 | 0.00 | 1.42 | 0.00 | 57 | 1003.7 |
| 20260507204518 | 6 | 250 | 9.7 | 27.4 | 0.00 | 0.03 | 0.03 | 66 | 1003.9 |
| 20260507203043 | 7 | 338 | 17.7 | 35.4 | 0.00 | 1.57 | 0.00 | 58 | 1003.8 |
| 20260507201541 | 7 | 308 | 11.3 | 37.0 | 0.00 | 1.57 | 0.00 | 58 | 1003.7 |
| 20260507201514 | 5 | 276 | 19.3 | 33.8 | 0.00 | 0.03 | 0.03 | 66 | 1004.1 |
| 20260507200052 | 7 | 298 | 24.1 | 41.8 | 0.00 | 1.57 | 0.00 | 56 | 1003.7 |
| 20260507200026 | 6 | 270 | 19.3 | 41.8 | 0.00 | 0.03 | 0.03 | 64 | 1003.9 |
| 20260507194540 | 8 | 323 | 14.5 | 37.0 | 0.00 | 1.57 | 0.00 | 57 | 1003.5 |
| 20260507194512 | 5 | 222 | 16.1 | 25.7 | 0.00 | 0.03 | 0.03 | 68 | 1004.1 |
| 20260507193104 | 8 | 323 | 11.3 | 43.5 | 0.00 | 1.98 | 0.00 | 58 | 1003.4 |
| 20260507191540 | 9 | 330 | 11.3 | 35.4 | 0.00 | 1.98 | 0.00 | 62 | 1003.2 |
| 20260507191509 | 5 | 286 | 14.5 | 27.4 | 0.00 | 0.03 | 0.03 | 75 | 1004.0 |
| 20260507190039 | 9 | 341 | 19.3 | 41.8 | 0.00 | 1.98 | 0.00 | 62 | 1003.2 |
| 20260507190020 | 5 | 287 | 9.7 | 24.1 | 0.00 | 0.03 | 0.03 | 86 | 1004.1 |
| 20260507184535 | 9 | 120 | 9.7 | 24.1 | 0.00 | 1.98 | 0.00 | 60 | 1003.2 |
| 20260507184506 | 6 | 242 | 9.7 | 22.5 | 0.00 | 0.03 | 0.03 | 87 | 1004.1 |
| 20260507183034 | 9 | 326 | 12.9 | 27.4 | 0.00 | 2.26 | 0.00 | 58 | 1003.4 |
| 20260507181519 | 7 | 313 | 11.3 | 27.4 | 0.00 | 2.26 | 0.00 | 51 | 1003.7 |
| 20260507181505 | 5 | 262 | 12.9 | 25.7 | 0.00 | 0.03 | 0.03 | 88 | 1004.2 |
| 20260507180016 | 7 | 353 | 17.7 | 35.4 | 0.00 | 2.26 | 0.00 | 50 | 1003.7 |
| 20260507180006 | 5 | 283 | 9.7 | 22.5 | 0.03 | 0.03 | 0.03 | 90 | 1004.3 |
| 20260507174516 | 7 | 355 | 11.3 | 35.4 | 0.00 | 2.26 | 0.00 | 46 | 1003.6 |
| 20260507174502 | 4 | 286 | 11.3 | 22.5 | 0.03 | 0.03 | 0.03 | 94 | 1004.4 |
| 20260507173101 | 3 | 277 | 11.3 | 19.3 | 0.03 | 0.03 | 0.03 | 94 | 1004.5 |
| 20260507173019 | 7 | 261 | 17.7 | 33.8 | 0.00 | 2.46 | 0.00 | 51 | 1003.7 |
| 20260507171549 | 3 | 262 | 9.7 | 22.5 | 0.03 | 0.03 | 0.03 | 92 | 1004.6 |
| 20260507171512 | 7 | 314 | 8.0 | 24.1 | 0.00 | 2.46 | 0.00 | 47 | 1003.8 |
| 20260507170046 | 3 | 257 | 9.7 | 24.1 | 0.00 | 0.00 | 0.00 | 91 | 1004.6 |
| 20260507170011 | 7 | 351 | 12.9 | 37.0 | 0.00 | 2.46 | 0.00 | 49 | 1003.7 |
| 20260507164542 | 3 | 247 | 12.9 | 24.1 | 0.00 | 0.00 | 0.00 | 93 | 1004.7 |
| 20260507164509 | 8 | 297 | 19.3 | 35.4 | 0.00 | 2.46 | 0.00 | 49 | 1003.7 |
| 20260507163055 | 9 | 289 | 16.1 | 29.0 | 0.00 | 2.67 | 0.00 | 49 | 1003.7 |
| 20260507163040 | 4 | 268 | 9.7 | 22.5 | 0.00 | 0.00 | 0.00 | 93 | 1004.6 |
| 20260507161606 | 9 | 304 | 9.7 | 27.4 | 0.00 | 2.67 | 0.00 | 49 | 1003.6 |
| 20260507161540 | 5 | 266 | 12.9 | 24.1 | 0.00 | 0.00 | 0.00 | 92 | 1004.4 |
| 20260507160039 | 5 | 259 | 12.9 | 24.1 | 0.00 | 0.00 | 0.00 | 92 | 1004.3 |
| 20260507154546 | 8 | 27 | 3.2 | 22.5 | 0.00 | 2.67 | 0.00 | 45 | 1004.1 |
| 20260507154540 | 5 | 277 | 9.7 | 19.3 | 0.00 | 0.00 | 0.00 | 93 | 1004.3 |
| 20260507153045 | 5 | 244 | 4.8 | 16.1 | 0.00 | 0.00 | 0.00 | 95 | 1004.4 |
| 20260507153043 | 8 | 295 | 1.6 | 16.1 | 0.00 | 2.84 | 0.00 | 38 | 1004.4 |
| 20260507151538 | 8 | 297 | 1.6 | 17.7 | 0.00 | 2.84 | 0.00 | 27 | 1004.6 |
| 20260507151521 | 5 | 265 | 6.4 | 16.1 | 0.00 | 0.00 | 0.00 | 95 | 1004.4 |
| 20260507150034 | 7 | 359 | 3.2 | 12.9 | 0.00 | 2.84 | 0.00 | 14 | 1004.7 |
| 20260507150019 | 5 | 257 | 9.7 | 24.1 | 0.00 | 0.00 | 0.00 | 96 | 1004.4 |
| 20260507144542 | 7 | 243 | 3.2 | 14.5 | 0.00 | 2.84 | 0.00 | 19 | 1004.9 |
| 20260507144517 | 5 | 272 | 9.7 | 22.5 | 0.00 | 0.00 | 0.00 | 96 | 1004.2 |
| 20260507143029 | 7 | 261 | 0.0 | 14.5 | 0.00 | 3.07 | 2.84 | 20 | 1004.9 |
| 20260507143014 | 5 | 249 | 11.3 | 22.5 | 0.00 | 0.00 | 0.00 | 97 | 1004.1 |
| 20260507141526 | 7 | 316 | 3.2 | 14.5 | 0.00 | 3.07 | 2.84 | 20 | 1005.0 |
| 20260507141511 | 5 | 240 | 9.7 | 20.9 | 0.00 | 0.00 | 0.00 | 98 | 1003.9 |
| 20260507140117 | 7 | 303 | 1.6 | 17.7 | 0.00 | 3.07 | 2.84 | 19 | 1005.1 |
| 20260507140010 | 5 | 250 | 8.0 | 16.1 | 0.00 | 0.00 | 0.00 | 98 | 1003.7 |
| 20260507134606 | 7 | 295 | 3.2 | 14.5 | 0.00 | 3.07 | 2.84 | 7 | 1005.1 |
| 20260507134509 | 4 | 261 | 11.3 | 20.9 | 0.00 | 0.00 | 0.00 | 98 | 1003.6 |
| 20260507133052 | 7 | 325 | 8.0 | 17.7 | 0.00 | 3.12 | 2.84 | 100 | 1005.2 |
| 20260507133006 | 4 | 255 | 8.0 | 16.1 | 0.00 | 0.00 | 0.00 | 99 | 1003.2 |
| 20260507131602 | 4 | 245 | 8.0 | 22.5 | 0.00 | 0.00 | 0.00 | 99 | 1002.7 |
| 20260507131537 | 6 | 282 | 9.7 | 20.9 | 0.00 | 3.12 | 2.84 | 100 | 1005.4 |
| 20260507130052 | -17 | 0.0 | 0.0 | 0.00 | 0.00 | 0.00 | 1002.5 | ||
| 20260507130039 | 6 | 272 | 3.2 | 14.5 | 0.00 | 3.12 | 2.84 | 100 | 1005.5 |
| 20260507124546 | -17 | 0.0 | 0.0 | 0.00 | 0.00 | 0.00 | 1002.6 | ||
| 20260507124527 | 6 | 261 | 3.2 | 12.9 | 0.00 | 3.12 | 2.84 | 100 | 1005.5 |
| 20260507123043 | -17 | 0.0 | 0.0 | 0.00 | 0.00 | 0.00 | 1002.4 | ||
| 20260507123032 | 6 | 251 | 0.0 | 16.1 | 0.00 | 3.12 | 2.84 | 100 | 1005.4 |
| 20260507121539 | -17 | 0.0 | 0.0 | 0.00 | 0.00 | 0.00 | 1002.6 | ||
| 20260507121518 | 5 | 304 | 8.0 | 17.7 | 0.00 | 3.12 | 2.84 | 100 | 1005.5 |
| 20260507120026 | -17 | 0.0 | 0.0 | 0.00 | 0.00 | 0.00 | 1002.8 | ||
| 20260507120014 | 5 | 285 | 1.6 | 12.9 | 0.00 | 3.12 | 2.84 | 100 | 1005.5 |
| 20260507114521 | -17 | 0.0 | 0.0 | 0.00 | 0.00 | 0.00 | 1002.8 | ||
| 20260507114509 | 5 | 290 | 0.0 | 14.5 | 0.00 | 3.12 | 2.84 | 100 | 1005.6 |
| 20260507113029 | -17 | 0.0 | 0.0 | 0.00 | 0.00 | 0.00 | 1002.8 | ||
| 20260507113006 | 5 | 266 | 0.0 | 11.3 | 0.00 | 3.12 | 2.84 | 100 | 1005.7 |
| 20260507111555 | 5 | 249 | 1.6 | 6.4 | 0.00 | 3.12 | 2.84 | 100 | 1005.6 |
| 20260507111502 | -17 | 0.0 | 0.0 | 0.00 | 0.00 | 0.00 | 1002.7 | ||
| 20260507110058 | -17 | 0.0 | 0.0 | 0.00 | 0.00 | 0.00 | 1002.8 | ||
| 20260507110040 | 5 | 285 | 1.6 | 6.4 | 0.00 | 3.12 | 2.84 | 100 | 1005.4 |
| 20260507104552 | -17 | 0.0 | 0.0 | 0.00 | 0.00 | 0.00 | 1002.5 | ||
| 20260507104524 | 4 | 233 | 3.2 | 9.7 | 0.00 | 3.12 | 2.84 | 100 | 1005.4 |
| 20260507103050 | -17 | 0.0 | 0.0 | 0.00 | 0.00 | 0.00 | 1002.4 | ||
| 20260507103020 | 4 | 341 | 0.0 | 6.4 | 0.00 | 3.12 | 2.84 | 100 | 1005.1 |
| 20260507101547 | -17 | 0.0 | 0.0 | 0.00 | 0.00 | 0.00 | 1002.3 | ||
| 20260507101517 | 4 | 256 | 1.6 | 9.7 | 0.00 | 3.12 | 2.84 | 100 | 1005.1 |
| 20260507100039 | -17 | 0.0 | 0.0 | 0.00 | 0.00 | 0.00 | 1002.2 | ||
| 20260507100013 | 4 | 295 | 1.6 | 9.7 | 0.00 | 3.12 | 2.84 | 100 | 1005.2 |
| 20260507094532 | -17 | 0.0 | 0.0 | 0.00 | 0.00 | 0.00 | 1002.3 | ||
| 20260507094506 | 4 | 307 | 0.0 | 9.7 | 0.00 | 3.12 | 2.84 | 100 | 1004.8 |
| 20260507093036 | -17 | 0.0 | 0.0 | 0.00 | 0.00 | 0.00 | 1002.2 | ||
| 20260507093002 | 4 | 312 | 0.0 | 6.4 | 0.00 | 3.12 | 2.84 | 100 | 1004.9 |
| 20260507091558 | 4 | 313 | 0.0 | 6.4 | 0.00 | 3.12 | 2.84 | 100 | 1004.8 |
| 20260507091508 | -17 | 0.0 | 0.0 | 0.00 | 0.00 | 0.00 | 1002.1 | ||
| 20260507090005 | -17 | 0.0 | 0.0 | 0.00 | 0.00 | 0.00 | 1002.1 | ||
| 20260507084600 | -17 | 0.0 | 0.0 | 0.00 | 0.00 | 0.00 | 1002.3 | ||
| 20260507084541 | 4 | 293 | 0.0 | 6.4 | 0.00 | 3.12 | 2.84 | 100 | 1004.7 |
| 20260507083102 | -17 | 0.0 | 0.0 | 0.00 | 0.00 | 0.00 | 1002.2 | ||
| 20260507083036 | 4 | 287 | 0.0 | 4.8 | 0.00 | 3.17 | 2.84 | 100 | 1004.6 |
| 20260507081551 | -17 | 0.0 | 0.0 | 0.00 | 0.00 | 0.00 | 1002.0 | ||
| 20260507081535 | 4 | 283 | 0.0 | 3.2 | 0.00 | 3.17 | 2.84 | 100 | 1004.8 |
| 20260507080113 | -17 | 0.0 | 0.0 | 0.00 | 0.00 | 0.00 | 1002.0 | ||
| 20260507080024 | 4 | 282 | 0.0 | 1.6 | 0.00 | 3.17 | 2.84 | 100 | 1004.7 |
| 20260507074546 | -17 | 0.0 | 0.0 | 0.00 | 0.00 | 0.00 | 1002.1 | ||
| 20260507074520 | 4 | 305 | 0.0 | 0.0 | 0.00 | 3.17 | 2.84 | 100 | 1004.6 |
| 20260507073038 | -17 | 0.0 | 0.0 | 0.00 | 0.00 | 0.00 | 1002.0 | ||
| 20260507073016 | 4 | 358 | 0.0 | 0.0 | 0.00 | 3.20 | 2.84 | 100 | 1004.5 |
| 20260507071518 | -17 | 0.0 | 0.0 | 0.00 | 0.00 | 0.00 | 1002.0 | ||
| 20260507071511 | 4 | 358 | 0.0 | 0.0 | 0.00 | 3.20 | 2.84 | 100 | 1004.4 |
| 20260507070014 | -17 | 0.0 | 0.0 | 0.00 | 0.00 | 0.00 | 1002.0 | ||
| 20260507070011 | 4 | 359 | 0.0 | 3.2 | 0.00 | 3.20 | 2.84 | 100 | 1004.2 |
| 20260507064603 | 5 | 18 | 1.6 | 11.3 | 0.00 | 3.20 | 2.84 | 100 | 1004.1 |
| 20260507064510 | -17 | 0.0 | 0.0 | 0.00 | 0.00 | 0.00 | 1002.1 | ||
| 20260507063041 | 5 | 348 | 3.2 | 16.1 | 0.00 | 3.30 | 2.84 | 100 | 1004.3 |
| 20260507063006 | -17 | 0.0 | 0.0 | 0.00 | 0.00 | 0.00 | 1002.0 | ||
| 20260507061527 | 5 | 329 | 3.2 | 8.0 | 0.00 | 3.30 | 2.84 | 100 | 1004.3 |
| 20260507061504 | -17 | 0.0 | 0.0 | 0.00 | 0.00 | 0.00 | 1002.1 | ||
| 20260507060021 | 5 | 338 | 1.6 | 19.3 | 0.00 | 3.30 | 2.84 | 100 | 1004.4 |
| 20260507054604 | -17 | 0.0 | 0.0 | 0.00 | 0.00 | 0.00 | 1002.3 | ||
| 20260507054516 | 5 | 49 | 0.0 | 6.4 | 0.00 | 3.30 | 2.84 | 100 | 1004.5 |
| 20260507053049 | -17 | 0.0 | 0.0 | 0.00 | 0.00 | 0.00 | 1002.7 | ||
| 20260507053013 | 5 | 2 | 0.0 | 11.3 | 0.00 | 3.33 | 2.84 | 100 | 1004.0 |
| 20260507051544 | -17 | 0.0 | 0.0 | 0.00 | 0.00 | 0.00 | 1002.6 | ||
| 20260507051508 | 5 | 20 | 0.0 | 14.5 | 0.00 | 3.33 | 2.84 | 100 | 1004.3 |